sensor_id;sensor_type;location;lat;lon;timestamp;pressure;altitude;pressure_sealevel;temperature;humidity
45253;BME280;63171;50.520;30.486;2023-01-26T01:17:42;101272.75;;;-1.90;100.00
45253;BME280;63171;50.520;30.486;2023-01-26T01:18:33;101273.59;;;-1.91;100.00
45253;BME280;63171;50.520;30.486;2023-01-26T01:19:23;101265.00;;;-1.93;100.00
45253;BME280;63171;50.520;30.486;2023-01-26T01:20:14;101271.69;;;-2.08;100.00
45253;BME280;63171;50.520;30.486;2023-01-26T01:21:05;101261.47;;;-2.03;100.00
45253;BME280;63171;50.520;30.486;2023-01-26T01:21:56;101267.47;;;-2.01;100.00
45253;BME280;63171;50.520;30.486;2023-01-26T01:22:46;101262.31;;;-2.05;100.00
45253;BME280;63171;50.520;30.486;2023-01-26T01:23:37;101265.69;;;-2.08;100.00
45253;BME280;63171;50.520;30.486;2023-01-26T01:24:26;101267.28;;;-2.18;100.00
45253;BME280;63171;50.520;30.486;2023-01-26T01:25:17;101266.28;;;-2.30;100.00
45253;BME280;63171;50.520;30.486;2023-01-26T01:26:10;101262.94;;;-2.25;100.00
45253;BME280;63171;50.520;30.486;2023-01-26T01:27:02;101258.75;;;-2.15;100.00
45253;BME280;63171;50.520;30.486;2023-01-26T01:27:51;101250.31;;;-2.06;100.00
45253;BME280;63171;50.520;30.486;2023-01-26T01:28:43;101261.47;;;-2.01;100.00
45253;BME280;63171;50.520;30.486;2023-01-26T01:29:32;101253.91;;;-1.89;100.00
45253;BME280;63171;50.520;30.486;2023-01-26T01:30:23;101254.88;;;-1.83;100.00
45253;BME280;63171;50.520;30.486;2023-01-26T01:31:15;101251.50;;;-1.75;100.00
45253;BME280;63171;50.520;30.486;2023-01-26T01:32:06;101254.16;;;-1.66;100.00
45253;BME280;63171;50.520;30.486;2023-01-26T01:32:57;101255.06;;;-1.61;100.00
45253;BME280;63171;50.520;30.486;2023-01-26T01:33:48;101252.47;;;-1.64;100.00
45253;BME280;63171;50.520;30.486;2023-01-26T01:34:38;101248.25;;;-1.59;100.00
45253;BME280;63171;50.520;30.486;2023-01-26T01:35:28;101255.13;;;-1.55;100.00
45253;BME280;63171;50.520;30.486;2023-01-26T01:36:18;101256.00;;;-1.52;100.00
45253;BME280;63171;50.520;30.486;2023-01-26T01:37:09;101247.47;;;-1.49;100.00
45253;BME280;63171;50.520;30.486;2023-01-26T01:37:59;101241.53;;;-1.45;100.00
45253;BME280;63171;50.520;30.486;2023-01-26T01:38:50;101249.28;;;-1.40;100.00
45253;BME280;63171;50.520;30.486;2023-01-26T01:39:39;101247.59;;;-1.35;100.00
45253;BME280;63171;50.520;30.486;2023-01-26T01:40:30;101249.28;;;-1.36;100.00
45253;BME280;63171;50.520;30.486;2023-01-26T01:41:20;101246.72;;;-1.36;100.00
45253;BME280;63171;50.520;30.486;2023-01-26T01:42:12;101251.06;;;-1.32;100.00
45253;BME280;63171;50.520;30.486;2023-01-26T01:43:04;101241.66;;;-1.31;100.00
45253;BME280;63171;50.520;30.486;2023-01-26T01:44:13;101241.66;;;-1.31;100.00
45253;BME280;63171;50.520;30.486;2023-01-26T01:45:36;101228.78;;;-1.33;100.00
45253;BME280;63171;50.520;30.486;2023-01-26T01:46:31;101232.25;;;-1.28;100.00
45253;BME280;63171;50.520;30.486;2023-01-26T01:47:24;101234.81;;;-1.26;100.00
45253;BME280;63171;50.520;30.486;2023-01-26T01:48:21;101231.41;;;-1.27;100.00
45253;BME280;63171;50.520;30.486;2023-01-26T01:49:16;101236.56;;;-1.24;100.00
45253;BME280;63171;50.520;30.486;2023-01-26T01:50:14;101233.13;;;-1.23;100.00
45253;BME280;63171;50.520;30.486;2023-01-26T01:51:10;101227.13;;;-1.26;100.00
45253;BME280;63171;50.520;30.486;2023-01-26T01:52:05;101228.84;;;-1.25;100.00
45253;BME280;63171;50.520;30.486;2023-01-26T01:52:57;101229.72;;;-1.22;100.00
45253;BME280;63171;50.520;30.486;2023-01-26T01:53:50;101233.19;;;-1.18;100.00
45253;BME280;63171;50.520;30.486;2023-01-26T01:54:43;101226.28;;;-1.22;100.00
45253;BME280;63171;50.520;30.486;2023-01-26T01:55:37;101230.56;;;-1.24;100.00
45253;BME280;63171;50.520;30.486;2023-01-26T01:56:28;101222.84;;;-1.26;100.00
45253;BME280;63171;50.520;30.486;2023-01-26T01:57:22;101223.72;;;-1.21;100.00
45253;BME280;63171;50.520;30.486;2023-01-26T01:58:16;101221.13;;;-1.22;100.00
45253;BME280;63171;50.520;30.486;2023-01-26T01:59:07;101217.75;;;-1.20;100.00
45253;BME280;63171;50.520;30.486;2023-01-26T02:00:01;101222.84;;;-1.24;100.00
45253;BME280;63171;50.520;30.486;2023-01-26T02:01:02;101222.81;;;-1.27;100.00
45253;BME280;63171;50.520;30.486;2023-01-26T02:01:54;101217.72;;;-1.21;100.00
45253;BME280;63171;50.520;30.486;2023-01-26T02:02:49;101217.69;;;-1.24;100.00
45253;BME280;63171;50.520;30.486;2023-01-26T02:03:59;101215.19;;;-1.18;100.00
45253;BME280;63171;50.520;30.486;2023-01-26T02:04:53;101210.81;;;-1.28;100.00
45253;BME280;63171;50.520;30.486;2023-01-26T02:05:52;101216.81;;;-1.31;100.00
45253;BME280;63171;50.520;30.486;2023-01-26T02:06:46;101215.09;;;-1.33;100.00
45253;BME280;63171;50.520;30.486;2023-01-26T02:07:37;101208.22;;;-1.33;100.00
45253;BME280;63171;50.520;30.486;2023-01-26T02:08:30;101213.38;;;-1.33;100.00
45253;BME280;63171;50.520;30.486;2023-01-26T02:09:25;101211.69;;;-1.26;100.00
45253;BME280;63171;50.520;30.486;2023-01-26T02:10:35;101213.41;;;-1.24;100.00
45253;BME280;63171;50.520;30.486;2023-01-26T02:11:31;101213.47;;;-1.17;100.00
45253;BME280;63171;50.520;30.486;2023-01-26T02:12:26;101206.63;;;-1.15;100.00
45253;BME280;63171;50.520;30.486;2023-01-26T02:13:19;101208.28;;;-1.24;100.00
45253;BME280;63171;50.520;30.486;2023-01-26T02:14:13;101203.97;;;-1.31;100.00
45253;BME280;63171;50.520;30.486;2023-01-26T02:15:06;101198.81;;;-1.31;100.00
45253;BME280;63171;50.520;30.486;2023-01-26T02:15:57;101200.56;;;-1.25;100.00
45253;BME280;63171;50.520;30.486;2023-01-26T02:16:48;101204.84;;;-1.26;100.00
45253;BME280;63171;50.520;30.486;2023-01-26T02:17:38;101203.16;;;-1.21;100.00
45253;BME280;63171;50.520;30.486;2023-01-26T02:18:30;101201.47;;;-1.20;100.00
45253;BME280;63171;50.520;30.486;2023-01-26T02:19:27;101198.06;;;-1.14;100.00
45253;BME280;63171;50.520;30.486;2023-01-26T02:20:21;101196.34;;;-1.20;100.00
45253;BME280;63171;50.520;30.486;2023-01-26T02:21:18;101200.63;;;-1.16;100.00
45253;BME280;63171;50.520;30.486;2023-01-26T02:22:13;101202.34;;;-1.13;100.00
45253;BME280;63171;50.520;30.486;2023-01-26T02:23:09;101196.38;;;-1.08;100.00
45253;BME280;63171;50.520;30.486;2023-01-26T02:24:10;101196.38;;;-1.11;100.00
45253;BME280;63171;50.520;30.486;2023-01-26T02:25:05;101192.94;;;-1.14;100.00
45253;BME280;63171;50.520;30.486;2023-01-26T02:26:07;101194.66;;;-1.12;100.00
45253;BME280;63171;50.520;30.486;2023-01-26T02:26:57;101191.22;;;-1.12;100.00
45253;BME280;63171;50.520;30.486;2023-01-26T02:27:48;101192.09;;;-1.10;100.00
45253;BME280;63171;50.520;30.486;2023-01-26T02:28:40;101191.25;;;-1.08;100.00
45253;BME280;63171;50.520;30.486;2023-01-26T02:29:32;101182.66;;;-1.10;100.00
45253;BME280;63171;50.520;30.486;2023-01-26T02:30:23;101180.94;;;-1.11;100.00
45253;BME280;63171;50.520;30.486;2023-01-26T02:31:15;101181.84;;;-1.06;100.00
45253;BME280;63171;50.520;30.486;2023-01-26T02:32:06;101188.72;;;-1.02;100.00
45253;BME280;63171;50.520;30.486;2023-01-26T02:32:56;101187.00;;;-1.03;100.00
45253;BME280;63171;50.520;30.486;2023-01-26T02:33:46;101178.44;;;-1.06;100.00
45253;BME280;63171;50.520;30.486;2023-01-26T02:34:37;101190.38;;;-1.11;100.00
45253;BME280;63171;50.520;30.486;2023-01-26T02:35:27;101184.38;;;-1.15;99.70
45253;BME280;63171;50.520;30.486;2023-01-26T02:36:20;101188.59;;;-1.22;99.95
45253;BME280;63171;50.520;30.486;2023-01-26T02:37:13;101188.63;;;-1.17;99.51
45253;BME280;63171;50.520;30.486;2023-01-26T02:38:06;101186.09;;;-1.11;99.83
45253;BME280;63171;50.520;30.486;2023-01-26T02:39:10;101184.34;;;-1.20;99.76
45253;BME280;63171;50.520;30.486;2023-01-26T02:40:11;101184.34;;;-1.18;99.25
45253;BME280;63171;50.520;30.486;2023-01-26T02:41:08;101181.72;;;-1.23;99.31
45253;BME280;63171;50.520;30.486;2023-01-26T02:41:59;101182.59;;;-1.22;99.49
45253;BME280;63171;50.520;30.486;2023-01-26T02:43:08;101182.56;;;-1.28;99.08
45253;BME280;63171;50.520;30.486;2023-01-26T02:44:00;101181.72;;;-1.21;99.20
45253;BME280;63171;50.520;30.486;2023-01-26T02:44:50;101171.44;;;-1.21;99.13
45253;BME280;63171;50.520;30.486;2023-01-26T02:45:42;101168.84;;;-1.29;98.71
45253;BME280;63171;50.520;30.486;2023-01-26T02:46:32;101173.81;;;-1.50;98.48
45253;BME280;63171;50.520;30.486;2023-01-26T02:47:23;101167.84;;;-1.48;98.69
45253;BME280;63171;50.520;30.486;2023-01-26T02:48:13;101169.63;;;-1.40;98.70
45253;BME280;63171;50.520;30.486;2023-01-26T02:49:26;101172.25;;;-1.31;98.45
45253;BME280;63171;50.520;30.486;2023-01-26T02:50:44;101173.13;;;-1.28;98.87
45253;BME280;63171;50.520;30.486;2023-01-26T02:51:33;101168.84;;;-1.30;98.57
45253;BME280;63171;50.520;30.486;2023-01-26T02:52:24;101164.59;;;-1.25;98.33
45253;BME280;63171;50.520;30.486;2023-01-26T02:53:20;101167.16;;;-1.27;98.32
45253;BME280;63171;50.520;30.486;2023-01-26T02:54:10;101152.47;;;-1.41;98.11
45253;BME280;63171;50.520;30.486;2023-01-26T02:55:22;101161.94;;;-1.37;98.38
45253;BME280;63171;50.520;30.486;2023-01-26T02:56:15;101147.41;;;-1.31;98.51
45253;BME280;63171;50.520;30.486;2023-01-26T02:57:05;101150.00;;;-1.26;98.33
45253;BME280;63171;50.520;30.486;2023-01-26T02:57:56;101152.63;;;-1.20;98.10
45253;BME280;63171;50.520;30.486;2023-01-26T02:58:47;101150.94;;;-1.13;98.10
45253;BME280;63171;50.520;30.486;2023-01-26T02:59:37;101153.53;;;-1.07;98.41
45253;BME280;63171;50.520;30.486;2023-01-26T03:00:28;101158.72;;;-1.03;98.08
45253;BME280;63171;50.520;30.486;2023-01-26T03:01:19;101156.16;;;-1.03;98.38
45253;BME280;63171;50.520;30.486;2023-01-26T03:02:09;101152.72;;;-1.02;98.31
45253;BME280;63171;50.520;30.486;2023-01-26T03:03:00;101159.63;;;-0.95;98.35
45253;BME280;63171;50.520;30.486;2023-01-26T03:03:53;101154.47;;;-0.95;98.12
45253;BME280;63171;50.520;30.486;2023-01-26T03:04:46;101149.31;;;-0.96;98.10
45253;BME280;63171;50.520;30.486;2023-01-26T03:05:37;101151.94;;;-0.92;97.86
45253;BME280;63171;50.520;30.486;2023-01-26T03:06:27;101146.81;;;-0.92;97.95
45253;BME280;63171;50.520;30.486;2023-01-26T03:07:19;101147.66;;;-0.91;97.80
45253;BME280;63171;50.520;30.486;2023-01-26T03:08:09;101155.38;;;-0.88;98.02
45253;BME280;63171;50.520;30.486;2023-01-26T03:09:00;101148.53;;;-0.87;97.84
45253;BME280;63171;50.520;30.486;2023-01-26T03:09:49;101153.66;;;-0.87;97.86
45253;BME280;63171;50.520;30.486;2023-01-26T03:10:40;101151.97;;;-0.84;97.82
45253;BME280;63171;50.520;30.486;2023-01-26T03:11:31;101154.53;;;-0.82;97.63
45253;BME280;63171;50.520;30.486;2023-01-26T03:12:30;101145.97;;;-0.83;97.53
45253;BME280;63171;50.520;30.486;2023-01-26T03:13:20;101153.69;;;-0.83;97.71
45253;BME280;63171;50.520;30.486;2023-01-26T03:14:12;101149.38;;;-0.84;97.43
45253;BME280;63171;50.520;30.486;2023-01-26T03:15:04;101156.25;;;-0.81;97.58
45253;BME280;63171;50.520;30.486;2023-01-26T03:16:13;101142.47;;;-0.96;97.14
45253;BME280;63171;50.520;30.486;2023-01-26T03:17:06;101145.09;;;-0.91;97.06
45253;BME280;63171;50.520;30.486;2023-01-26T03:18:07;101146.81;;;-0.92;96.75
45253;BME280;63171;50.520;30.486;2023-01-26T03:19:24;101146.81;;;-0.90;97.15
45253;BME280;63171;50.520;30.486;2023-01-26T03:20:32;101139.91;;;-0.96;96.93
45253;BME280;63171;50.520;30.486;2023-01-26T03:21:40;101138.19;;;-0.95;96.32
45253;BME280;63171;50.520;30.486;2023-01-26T03:22:49;101139.94;;;-0.93;96.54
45253;BME280;63171;50.520;30.486;2023-01-26T03:23:56;101143.38;;;-0.91;96.44
45253;BME280;63171;50.520;30.486;2023-01-26T03:25:07;101135.66;;;-0.89;96.34
45253;BME280;63171;50.520;30.486;2023-01-26T03:26:16;101137.38;;;-0.85;96.41
45253;BME280;63171;50.520;30.486;2023-01-26T03:27:26;101139.97;;;-0.86;96.02
45253;BME280;63171;50.520;30.486;2023-01-26T03:28:21;101136.53;;;-0.82;96.20
45253;BME280;63171;50.520;30.486;2023-01-26T03:29:12;101144.28;;;-0.79;96.20
45253;BME280;63171;50.520;30.486;2023-01-26T03:30:06;101145.13;;;-0.80;96.29
45253;BME280;63171;50.520;30.486;2023-01-26T03:30:56;101141.72;;;-0.78;95.92
45253;BME280;63171;50.520;30.486;2023-01-26T03:31:48;101142.53;;;-0.80;96.15
45253;BME280;63171;50.520;30.486;2023-01-26T03:32:38;101140.88;;;-0.78;95.90
45253;BME280;63171;50.520;30.486;2023-01-26T03:33:32;101138.28;;;-0.77;96.00
45253;BME280;63171;50.520;30.486;2023-01-26T03:34:22;101146.88;;;-0.73;96.07
45253;BME280;63171;50.520;30.486;2023-01-26T03:35:13;101136.53;;;-0.81;95.70
45253;BME280;63171;50.520;30.486;2023-01-26T03:36:05;101130.53;;;-0.81;95.83
45253;BME280;63171;50.520;30.486;2023-01-26T03:36:56;101128.88;;;-0.78;96.07
45253;BME280;63171;50.520;30.486;2023-01-26T03:37:45;101139.16;;;-0.75;95.54
45253;BME280;63171;50.520;30.486;2023-01-26T03:38:45;101134.88;;;-0.71;95.51
45253;BME280;63171;50.520;30.486;2023-01-26T03:39:36;101121.16;;;-0.72;95.70
45253;BME280;63171;50.520;30.486;2023-01-26T03:40:45;101128.00;;;-0.78;95.26
45253;BME280;63171;50.520;30.486;2023-01-26T03:41:54;101125.44;;;-0.78;95.30
45253;BME280;63171;50.520;30.486;2023-01-26T03:43:07;101125.38;;;-0.81;95.20
45253;BME280;63171;50.520;30.486;2023-01-26T03:44:15;101127.03;;;-0.96;94.80
45253;BME280;63171;50.520;30.486;2023-01-26T03:45:23;101124.47;;;-0.96;94.52
45253;BME280;63171;50.520;30.486;2023-01-26T03:46:32;101126.22;;;-0.93;94.51
45253;BME280;63171;50.520;30.486;2023-01-26T03:47:42;101120.19;;;-0.98;94.71
45253;BME280;63171;50.520;30.486;2023-01-26T03:48:50;101120.25;;;-0.87;94.64
45253;BME280;63171;50.520;30.486;2023-01-26T03:49:59;101119.38;;;-0.82;94.83
45253;BME280;63171;50.520;30.486;2023-01-26T03:51:07;101129.69;;;-0.82;94.70
45253;BME280;63171;50.520;30.486;2023-01-26T03:52:15;101123.66;;;-0.84;94.44
45253;BME280;63171;50.520;30.486;2023-01-26T03:53:25;101127.88;;;-1.03;94.35
45253;BME280;63171;50.520;30.486;2023-01-26T03:54:34;101127.88;;;-1.03;93.98
45253;BME280;63171;50.520;30.486;2023-01-26T03:55:43;101121.91;;;-0.96;94.43
45253;BME280;63171;50.520;30.486;2023-01-26T03:56:51;101125.38;;;-0.89;94.36
45253;BME280;63171;50.520;30.486;2023-01-26T03:57:42;101131.28;;;-1.07;94.14
45253;BME280;63171;50.520;30.486;2023-01-26T03:58:33;101128.69;;;-1.13;93.73
45253;BME280;63171;50.520;30.486;2023-01-26T03:59:23;101126.03;;;-1.22;93.89
45253;BME280;63171;50.520;30.486;2023-01-26T04:00:29;101130.28;;;-1.30;93.73
45253;BME280;63171;50.520;30.486;2023-01-26T04:01:20;101131.22;;;-1.16;94.07
45253;BME280;63171;50.520;30.486;2023-01-26T04:02:14;101137.22;;;-1.15;93.99
45253;BME280;63171;50.520;30.486;2023-01-26T04:03:24;101130.91;;;-1.62;93.30
45253;BME280;63171;50.520;30.486;2023-01-26T04:04:32;101134.44;;;-1.48;93.36
45253;BME280;63171;50.520;30.486;2023-01-26T04:05:43;101137.00;;;-1.51;93.31
45253;BME280;63171;50.520;30.486;2023-01-26T04:06:52;101133.66;;;-1.36;93.50
45253;BME280;63171;50.520;30.486;2023-01-26T04:08:05;101143.13;;;-1.33;93.83
45253;BME280;63171;50.520;30.486;2023-01-26T04:09:14;101133.66;;;-1.34;93.64
45253;BME280;63171;50.520;30.486;2023-01-26T04:10:04;101143.22;;;-1.20;94.07
45253;BME280;63171;50.520;30.486;2023-01-26T04:10:55;101149.22;;;-1.16;93.65
45253;BME280;63171;50.520;30.486;2023-01-26T04:11:45;101143.22;;;-1.18;93.92
45253;BME280;63171;50.520;30.486;2023-01-26T04:12:36;101138.88;;;-1.28;93.47
45253;BME280;63171;50.520;30.486;2023-01-26T04:13:38;101144.88;;;-1.22;93.67
45253;BME280;63171;50.520;30.486;2023-01-26T04:14:51;101143.06;;;-1.38;93.88
45253;BME280;63171;50.520;30.486;2023-01-26T04:16:00;101145.78;;;-1.16;93.93
45253;BME280;63171;50.520;30.486;2023-01-26T04:17:08;101144.94;;;-1.14;94.04
45253;BME280;63171;50.520;30.486;2023-01-26T04:18:17;101147.53;;;-1.09;94.33
45253;BME280;63171;50.520;30.486;2023-01-26T04:19:26;101156.03;;;-1.24;94.23
45253;BME280;63171;50.520;30.486;2023-01-26T04:20:35;101148.38;;;-1.12;93.96
45253;BME280;63171;50.520;30.486;2023-01-26T04:21:44;101145.88;;;-1.06;94.41
45253;BME280;63171;50.520;30.486;2023-01-26T04:22:40;101150.16;;;-1.02;94.21
45253;BME280;63171;50.520;30.486;2023-01-26T04:23:33;101147.59;;;-0.97;94.18
45253;BME280;63171;50.520;30.486;2023-01-26T04:24:24;101154.50;;;-0.93;94.66
45253;BME280;63171;50.520;30.486;2023-01-26T04:25:20;101155.38;;;-0.90;94.49
45253;BME280;63171;50.520;30.486;2023-01-26T04:26:11;101147.63;;;-0.96;94.13
45253;BME280;63171;50.520;30.486;2023-01-26T04:27:00;101147.53;;;-1.12;93.83
45253;BME280;63171;50.520;30.486;2023-01-26T04:27:57;101144.94;;;-1.14;94.24
45253;BME280;63171;50.520;30.486;2023-01-26T04:28:48;101143.22;;;-1.15;94.12
45253;BME280;63171;50.520;30.486;2023-01-26T04:29:37;101146.69;;;-1.08;94.43
45253;BME280;63171;50.520;30.486;2023-01-26T04:30:28;101140.75;;;-1.00;94.51
45253;BME280;63171;50.520;30.486;2023-01-26T04:31:20;101143.38;;;-0.91;94.60
45253;BME280;63171;50.520;30.486;2023-01-26T04:32:12;101143.38;;;-0.87;94.18
45253;BME280;63171;50.520;30.486;2023-01-26T04:33:03;101145.81;;;-1.09;94.22
45253;BME280;63171;50.520;30.486;2023-01-26T04:33:54;101146.75;;;-0.98;94.43
45253;BME280;63171;50.520;30.486;2023-01-26T04:34:44;101136.44;;;-1.05;93.91
45253;BME280;63171;50.520;30.486;2023-01-26T04:35:42;101145.03;;;-1.03;93.99
45253;BME280;63171;50.520;30.486;2023-01-26T04:36:32;101142.44;;;-1.02;94.41
45253;BME280;63171;50.520;30.486;2023-01-26T04:37:23;101143.25;;;-1.10;93.88
45253;BME280;63171;50.520;30.486;2023-01-26T04:38:14;101142.31;;;-1.23;94.13
45253;BME280;63171;50.520;30.486;2023-01-26T04:39:06;101149.25;;;-1.10;93.94
45253;BME280;63171;50.520;30.486;2023-01-26T04:39:56;101140.75;;;-1.00;94.38
45253;BME280;63171;50.520;30.486;2023-01-26T04:40:52;101141.59;;;-0.98;94.31
45253;BME280;63171;50.520;30.486;2023-01-26T04:41:41;101144.22;;;-0.92;94.18
45253;BME280;63171;50.520;30.486;2023-01-26T04:42:35;101142.50;;;-0.91;94.13
45253;BME280;63171;50.520;30.486;2023-01-26T04:43:27;101141.66;;;-0.88;94.29
45253;BME280;63171;50.520;30.486;2023-01-26T04:44:19;101146.81;;;-0.88;94.28
45253;BME280;63171;50.520;30.486;2023-01-26T04:45:10;101146.75;;;-0.95;94.42
45253;BME280;63171;50.520;30.486;2023-01-26T04:46:03;101147.59;;;-0.99;94.39
45253;BME280;63171;50.520;30.486;2023-01-26T04:46:54;101148.47;;;-1.00;94.43
45253;BME280;63171;50.520;30.486;2023-01-26T04:47:45;101145.91;;;-0.97;94.19
45253;BME280;63171;50.520;30.486;2023-01-26T04:48:37;101140.66;;;-1.15;93.69
45253;BME280;63171;50.520;30.486;2023-01-26T04:49:28;101143.31;;;-1.04;93.91
45253;BME280;63171;50.520;30.486;2023-01-26T04:50:18;101150.19;;;-0.97;94.10
45253;BME280;63171;50.520;30.486;2023-01-26T04:51:12;101150.19;;;-0.97;94.29
45253;BME280;63171;50.520;30.486;2023-01-26T04:52:02;101145.00;;;-1.06;93.95
45253;BME280;63171;50.520;30.486;2023-01-26T04:52:52;101142.44;;;-1.05;94.13
45253;BME280;63171;50.520;30.486;2023-01-26T04:53:43;101141.53;;;-1.08;94.41
45253;BME280;63171;50.520;30.486;2023-01-26T04:54:34;101132.97;;;-1.09;94.05
45253;BME280;63171;50.520;30.486;2023-01-26T04:55:24;101137.22;;;-1.18;94.06
45253;BME280;63171;50.520;30.486;2023-01-26T04:56:19;101132.94;;;-1.16;94.29
45253;BME280;63171;50.520;30.486;2023-01-26T04:57:10;101132.06;;;-1.20;93.82
45253;BME280;63171;50.520;30.486;2023-01-26T04:58:05;101133.72;;;-1.28;93.87
45253;BME280;63171;50.520;30.486;2023-01-26T04:58:58;101134.59;;;-1.28;94.04
45253;BME280;63171;50.520;30.486;2023-01-26T04:59:50;101122.63;;;-1.21;94.11
45253;BME280;63171;50.520;30.486;2023-01-26T05:00:42;101133.75;;;-1.22;94.12
45253;BME280;63171;50.520;30.486;2023-01-26T05:01:33;101133.66;;;-1.34;93.76
45253;BME280;63171;50.520;30.486;2023-01-26T05:02:24;101127.75;;;-1.21;94.20
45253;BME280;63171;50.520;30.486;2023-01-26T05:03:15;101130.31;;;-1.21;93.88
45253;BME280;63171;50.520;30.486;2023-01-26T05:04:05;101132.03;;;-1.22;93.92
45253;BME280;63171;50.520;30.486;2023-01-26T05:04:57;101131.22;;;-1.17;93.80
45253;BME280;63171;50.520;30.486;2023-01-26T05:05:48;101129.44;;;-1.28;93.82
45253;BME280;63171;50.520;30.486;2023-01-26T05:06:40;101124.28;;;-1.31;94.15
45253;BME280;63171;50.520;30.486;2023-01-26T05:07:31;101127.75;;;-1.27;93.91
45253;BME280;63171;50.520;30.486;2023-01-26T05:08:22;101135.19;;;-1.61;93.72
45253;BME280;63171;50.520;30.486;2023-01-26T05:09:12;101130.19;;;-1.45;93.72
45253;BME280;63171;50.520;30.486;2023-01-26T05:10:05;101120.81;;;-1.36;93.74
45253;BME280;63171;50.520;30.486;2023-01-26T05:11:17;101126.91;;;-1.22;94.02
45253;BME280;63171;50.520;30.486;2023-01-26T05:12:17;101127.81;;;-1.18;94.58
45253;BME280;63171;50.520;30.486;2023-01-26T05:13:40;101127.81;;;-1.16;94.11
45253;BME280;63171;50.520;30.486;2023-01-26T05:14:45;101123.47;;;-1.22;94.45
45253;BME280;63171;50.520;30.486;2023-01-26T05:15:46;101120.03;;;-1.21;94.55
45253;BME280;63171;50.520;30.486;2023-01-26T05:16:47;101123.44;;;-1.28;94.27
45253;BME280;63171;50.520;30.486;2023-01-26T05:17:46;101119.19;;;-1.25;94.09
45253;BME280;63171;50.520;30.486;2023-01-26T05:18:56;101115.75;;;-1.24;94.14
45253;BME280;63171;50.520;30.486;2023-01-26T05:19:54;101117.47;;;-1.21;94.53
45253;BME280;63171;50.520;30.486;2023-01-26T05:21:03;101126.09;;;-1.14;94.50
45253;BME280;63171;50.520;30.486;2023-01-26T05:22:02;101122.69;;;-1.10;94.44
45253;BME280;63171;50.520;30.486;2023-01-26T05:22:53;101118.31;;;-1.31;94.12
45253;BME280;63171;50.520;30.486;2023-01-26T05:24:03;101119.16;;;-1.32;94.52
45253;BME280;63171;50.520;30.486;2023-01-26T05:25:05;101113.09;;;-1.36;94.52
45253;BME280;63171;50.520;30.486;2023-01-26T05:26:02;101118.25;;;-1.36;94.25
45253;BME280;63171;50.520;30.486;2023-01-26T05:27:00;101112.22;;;-1.39;94.03
45253;BME280;63171;50.520;30.486;2023-01-26T05:28:17;101117.38;;;-1.39;94.26
45253;BME280;63171;50.520;30.486;2023-01-26T05:29:08;101118.25;;;-1.36;94.21
45253;BME280;63171;50.520;30.486;2023-01-26T05:29:59;101120.88;;;-1.33;94.33
45253;BME280;63171;50.520;30.486;2023-01-26T05:30:51;101116.50;;;-1.40;94.46
45253;BME280;63171;50.520;30.486;2023-01-26T05:31:41;101127.66;;;-1.41;94.37
45253;BME280;63171;50.520;30.486;2023-01-26T05:32:32;101133.63;;;-1.42;94.16
45253;BME280;63171;50.520;30.486;2023-01-26T05:33:22;101122.53;;;-1.38;94.37
45253;BME280;63171;50.520;30.486;2023-01-26T05:34:13;101121.75;;;-1.26;94.80
45253;BME280;63171;50.520;30.486;2023-01-26T05:35:04;101122.56;;;-1.32;94.68
45253;BME280;63171;50.520;30.486;2023-01-26T05:35:55;101120.81;;;-1.39;94.61
45253;BME280;63171;50.520;30.486;2023-01-26T05:36:45;101113.09;;;-1.40;94.65
45253;BME280;63171;50.520;30.486;2023-01-26T05:37:35;101117.34;;;-1.44;94.44
45253;BME280;63171;50.520;30.486;2023-01-26T05:38:25;101122.41;;;-1.55;94.06
45253;BME280;63171;50.520;30.486;2023-01-26T05:39:16;101114.72;;;-1.55;94.02
45253;BME280;63171;50.520;30.486;2023-01-26T05:40:07;101127.59;;;-1.47;94.46
45253;BME280;63171;50.520;30.486;2023-01-26T05:40:57;101118.22;;;-1.39;94.80
45253;BME280;63171;50.520;30.486;2023-01-26T05:41:48;101120.88;;;-1.33;94.82
45253;BME280;63171;50.520;30.486;2023-01-26T05:42:41;101120.03;;;-1.29;94.83
45253;BME280;63171;50.520;30.486;2023-01-26T05:44:00;101120.88;;;-1.31;94.98
45253;BME280;63171;50.520;30.486;2023-01-26T05:45:04;101119.09;;;-1.34;94.88
45253;BME280;63171;50.520;30.486;2023-01-26T05:45:57;101122.41;;;-1.53;94.61
45253;BME280;63171;50.520;30.486;2023-01-26T05:46:47;101127.59;;;-1.47;94.69
45253;BME280;63171;50.520;30.486;2023-01-26T05:47:38;101117.38;;;-1.41;94.53
45253;BME280;63171;50.520;30.486;2023-01-26T05:48:28;101129.34;;;-1.46;94.77
45253;BME280;63171;50.520;30.486;2023-01-26T05:49:19;101120.00;;;-1.32;94.87
45253;BME280;63171;50.520;30.486;2023-01-26T05:50:10;101122.50;;;-1.41;94.74
45253;BME280;63171;50.520;30.486;2023-01-26T05:51:02;101123.28;;;-1.53;94.75
45253;BME280;63171;50.520;30.486;2023-01-26T05:51:53;101121.38;;;-1.75;94.17
45253;BME280;63171;50.520;30.486;2023-01-26T05:52:43;101115.44;;;-1.71;94.43
45253;BME280;63171;50.520;30.486;2023-01-26T05:53:34;101124.75;;;-1.87;94.11
45253;BME280;63171;50.520;30.486;2023-01-26T05:54:25;101125.56;;;-1.88;94.10
45253;BME280;63171;50.520;30.486;2023-01-26T05:55:18;101124.56;;;-2.03;94.29
45253;BME280;63171;50.520;30.486;2023-01-26T05:56:07;101121.22;;;-1.95;94.47
45253;BME280;63171;50.520;30.486;2023-01-26T05:57:03;101125.66;;;-1.75;94.49
45253;BME280;63171;50.520;30.486;2023-01-26T05:57:54;101117.19;;;-1.65;94.62
45253;BME280;63171;50.520;30.486;2023-01-26T05:58:44;101123.19;;;-1.65;94.69
45253;BME280;63171;50.520;30.486;2023-01-26T05:59:34;101127.44;;;-1.68;94.79
45253;BME280;63171;50.520;30.486;2023-01-26T06:00:26;101136.88;;;-1.66;94.92
45253;BME280;63171;50.520;30.486;2023-01-26T06:01:24;101136.75;;;-1.81;94.61
45253;BME280;63171;50.520;30.486;2023-01-26T06:02:21;101138.94;;;-2.24;94.27
45253;BME280;63171;50.520;30.486;2023-01-26T06:03:11;101133.78;;;-2.25;94.04